FlightSource - Aviation Photo Database

World Wide Airport Lookup


Search by ICAO
Or
Search by City

FlightSource.ca - Aviation Photo Database - Lubumbashi International Airport Information
Airport Identification
Name: Lubumbashi International Airport
ICAO: FZQA
IATA: FBM
Airport Location
City:
Region: KA
Country: Congo (Kinshasa)
Continent: Africa
Latitude: -11.5913
Longitude: 27.5309
Airport Information
Type: Medium Airport
Elevation: 4295 Feet ASL
Flight Status: FZQA
More Info: FZQA
Airport Weather    
Metar: FZQA 290600Z 12008KT CAVOK 18/12 Q1023 NOSIG
TAF:


Advertisement